sensor_id;sensor_type;location;lat;lon;timestamp;P1;durP1;ratioP1;P2;durP2;ratioP2
79066;SDS011;68470;50.224;14.348;2023-06-14T00:01:44;11.00;;;5.63;;
79066;SDS011;68470;50.224;14.348;2023-06-14T00:04:13;8.05;;;5.15;;
79066;SDS011;68470;50.224;14.348;2023-06-14T00:06:42;7.72;;;4.90;;
79066;SDS011;68470;50.224;14.348;2023-06-14T00:09:10;7.95;;;4.88;;
79066;SDS011;68470;50.224;14.348;2023-06-14T00:11:43;11.65;;;5.00;;
79066;SDS011;68470;50.224;14.348;2023-06-14T00:14:09;8.35;;;5.40;;
79066;SDS011;68470;50.224;14.348;2023-06-14T00:16:35;7.93;;;5.53;;
79066;SDS011;68470;50.224;14.348;2023-06-14T00:19:02;8.40;;;5.32;;
79066;SDS011;68470;50.224;14.348;2023-06-14T00:21:31;11.18;;;5.57;;
79066;SDS011;68470;50.224;14.348;2023-06-14T00:24:00;7.50;;;5.03;;
79066;SDS011;68470;50.224;14.348;2023-06-14T00:26:26;8.18;;;5.05;;
79066;SDS011;68470;50.224;14.348;2023-06-14T00:28:52;9.63;;;5.43;;
79066;SDS011;68470;50.224;14.348;2023-06-14T00:31:19;10.30;;;6.25;;
79066;SDS011;68470;50.224;14.348;2023-06-14T00:33:45;9.45;;;5.88;;
79066;SDS011;68470;50.224;14.348;2023-06-14T00:36:10;9.00;;;5.18;;
79066;SDS011;68470;50.224;14.348;2023-06-14T00:38:36;7.25;;;5.07;;
79066;SDS011;68470;50.224;14.348;2023-06-14T00:41:02;8.57;;;5.00;;
79066;SDS011;68470;50.224;14.348;2023-06-14T00:43:28;10.68;;;5.82;;
79066;SDS011;68470;50.224;14.348;2023-06-14T00:45:54;8.10;;;5.03;;
79066;SDS011;68470;50.224;14.348;2023-06-14T00:48:20;11.35;;;5.45;;
79066;SDS011;68470;50.224;14.348;2023-06-14T00:50:46;9.60;;;5.70;;
79066;SDS011;68470;50.224;14.348;2023-06-14T00:53:15;8.43;;;5.75;;
79066;SDS011;68470;50.224;14.348;2023-06-14T00:55:43;7.78;;;4.72;;
79066;SDS011;68470;50.224;14.348;2023-06-14T00:58:09;8.82;;;5.03;;
79066;SDS011;68470;50.224;14.348;2023-06-14T01:00:36;9.88;;;5.80;;
79066;SDS011;68470;50.224;14.348;2023-06-14T01:03:02;7.72;;;5.70;;
79066;SDS011;68470;50.224;14.348;2023-06-14T01:05:29;10.13;;;6.35;;
79066;SDS011;68470;50.224;14.348;2023-06-14T01:13:22;9.77;;;5.32;;
79066;SDS011;68470;50.224;14.348;2023-06-14T01:15:58;8.15;;;5.22;;
79066;SDS011;68470;50.224;14.348;2023-06-14T01:18:24;6.95;;;4.90;;
79066;SDS011;68470;50.224;14.348;2023-06-14T01:20:51;10.43;;;5.35;;
79066;SDS011;68470;50.224;14.348;2023-06-14T01:23:21;9.77;;;5.60;;
79066;SDS011;68470;50.224;14.348;2023-06-14T01:25:49;10.88;;;5.57;;
79066;SDS011;68470;50.224;14.348;2023-06-14T01:28:19;9.73;;;4.82;;
79066;SDS011;68470;50.224;14.348;2023-06-14T01:30:48;6.57;;;4.70;;
79066;SDS011;68470;50.224;14.348;2023-06-14T01:33:20;7.72;;;5.30;;
79066;SDS011;68470;50.224;14.348;2023-06-14T01:35:48;7.60;;;5.93;;
79066;SDS011;68470;50.224;14.348;2023-06-14T01:38:17;9.13;;;5.15;;
79066;SDS011;68470;50.224;14.348;2023-06-14T01:40:45;8.95;;;5.55;;
79066;SDS011;68470;50.224;14.348;2023-06-14T01:43:13;8.80;;;5.53;;
79066;SDS011;68470;50.224;14.348;2023-06-14T01:45:40;10.63;;;5.85;;
79066;SDS011;68470;50.224;14.348;2023-06-14T01:48:07;11.07;;;5.97;;
79066;SDS011;68470;50.224;14.348;2023-06-14T01:50:34;14.27;;;6.80;;
79066;SDS011;68470;50.224;14.348;2023-06-14T01:52:59;9.93;;;6.03;;
79066;SDS011;68470;50.224;14.348;2023-06-14T01:55:26;14.75;;;6.40;;
79066;SDS011;68470;50.224;14.348;2023-06-14T01:57:52;8.52;;;6.03;;
79066;SDS011;68470;50.224;14.348;2023-06-14T02:00:20;10.88;;;6.28;;
79066;SDS011;68470;50.224;14.348;2023-06-14T02:02:46;9.48;;;5.97;;
79066;SDS011;68470;50.224;14.348;2023-06-14T02:05:13;11.93;;;6.82;;
79066;SDS011;68470;50.224;14.348;2023-06-14T02:07:38;10.50;;;6.05;;
79066;SDS011;68470;50.224;14.348;2023-06-14T02:10:05;10.02;;;6.28;;
79066;SDS011;68470;50.224;14.348;2023-06-14T02:12:31;12.25;;;6.80;;
79066;SDS011;68470;50.224;14.348;2023-06-14T02:14:58;10.95;;;6.78;;
79066;SDS011;68470;50.224;14.348;2023-06-14T02:17:23;9.68;;;5.80;;
79066;SDS011;68470;50.224;14.348;2023-06-14T02:19:51;9.90;;;6.28;;
79066;SDS011;68470;50.224;14.348;2023-06-14T02:22:16;10.65;;;6.53;;
79066;SDS011;68470;50.224;14.348;2023-06-14T02:24:43;11.85;;;6.57;;
79066;SDS011;68470;50.224;14.348;2023-06-14T02:27:08;13.10;;;6.32;;
79066;SDS011;68470;50.224;14.348;2023-06-14T02:32:05;10.50;;;6.03;;
79066;SDS011;68470;50.224;14.348;2023-06-14T02:34:33;12.13;;;6.85;;
79066;SDS011;68470;50.224;14.348;2023-06-14T02:37:00;12.32;;;7.28;;
79066;SDS011;68470;50.224;14.348;2023-06-14T02:39:29;16.45;;;7.38;;
79066;SDS011;68470;50.224;14.348;2023-06-14T02:41:55;12.00;;;7.55;;
79066;SDS011;68470;50.224;14.348;2023-06-14T02:44:24;10.52;;;6.65;;
79066;SDS011;68470;50.224;14.348;2023-06-14T02:46:55;10.73;;;7.28;;
79066;SDS011;68470;50.224;14.348;2023-06-14T02:49:21;11.48;;;7.07;;
79066;SDS011;68470;50.224;14.348;2023-06-14T02:51:47;11.68;;;7.07;;
79066;SDS011;68470;50.224;14.348;2023-06-14T02:54:13;14.00;;;7.20;;
79066;SDS011;68470;50.224;14.348;2023-06-14T02:56:41;10.52;;;7.53;;
79066;SDS011;68470;50.224;14.348;2023-06-14T02:59:07;11.10;;;6.35;;
79066;SDS011;68470;50.224;14.348;2023-06-14T03:01:34;11.10;;;6.68;;
79066;SDS011;68470;50.224;14.348;2023-06-14T03:04:01;15.77;;;6.20;;
79066;SDS011;68470;50.224;14.348;2023-06-14T03:06:31;12.25;;;6.43;;
79066;SDS011;68470;50.224;14.348;2023-06-14T03:08:57;9.25;;;6.30;;
79066;SDS011;68470;50.224;14.348;2023-06-14T03:11:29;10.10;;;5.72;;
79066;SDS011;68470;50.224;14.348;2023-06-14T03:13:57;11.85;;;6.85;;
79066;SDS011;68470;50.224;14.348;2023-06-14T03:16:22;13.80;;;6.95;;
79066;SDS011;68470;50.224;14.348;2023-06-14T03:18:52;10.52;;;7.10;;
79066;SDS011;68470;50.224;14.348;2023-06-14T03:21:19;10.60;;;6.78;;
79066;SDS011;68470;50.224;14.348;2023-06-14T03:23:46;13.27;;;7.60;;
79066;SDS011;68470;50.224;14.348;2023-06-14T03:26:12;13.05;;;8.00;;
79066;SDS011;68470;50.224;14.348;2023-06-14T03:28:40;12.55;;;7.82;;
79066;SDS011;68470;50.224;14.348;2023-06-14T03:31:06;11.95;;;6.97;;
79066;SDS011;68470;50.224;14.348;2023-06-14T03:33:34;11.15;;;6.35;;
79066;SDS011;68470;50.224;14.348;2023-06-14T03:36:01;11.70;;;7.28;;
79066;SDS011;68470;50.224;14.348;2023-06-14T03:38:28;11.60;;;7.85;;
79066;SDS011;68470;50.224;14.348;2023-06-14T03:40:56;14.95;;;7.75;;
79066;SDS011;68470;50.224;14.348;2023-06-14T03:43:22;11.02;;;7.35;;
79066;SDS011;68470;50.224;14.348;2023-06-14T03:45:48;11.70;;;6.97;;
79066;SDS011;68470;50.224;14.348;2023-06-14T03:48:14;13.57;;;7.30;;
79066;SDS011;68470;50.224;14.348;2023-06-14T03:50:40;18.05;;;8.32;;
79066;SDS011;68470;50.224;14.348;2023-06-14T03:53:08;10.68;;;7.75;;
79066;SDS011;68470;50.224;14.348;2023-06-14T03:55:34;14.35;;;7.85;;
79066;SDS011;68470;50.224;14.348;2023-06-14T03:58:00;11.82;;;7.30;;
79066;SDS011;68470;50.224;14.348;2023-06-14T04:00:27;12.27;;;8.10;;
79066;SDS011;68470;50.224;14.348;2023-06-14T04:02:52;12.90;;;7.85;;
79066;SDS011;68470;50.224;14.348;2023-06-14T04:05:20;12.35;;;7.43;;
79066;SDS011;68470;50.224;14.348;2023-06-14T04:07:45;12.88;;;7.70;;
79066;SDS011;68470;50.224;14.348;2023-06-14T04:10:14;12.20;;;7.78;;
79066;SDS011;68470;50.224;14.348;2023-06-14T04:12:41;11.88;;;6.47;;
79066;SDS011;68470;50.224;14.348;2023-06-14T04:15:08;14.43;;;6.43;;
79066;SDS011;68470;50.224;14.348;2023-06-14T04:17:34;9.02;;;6.22;;
79066;SDS011;68470;50.224;14.348;2023-06-14T04:20:01;9.77;;;6.18;;
79066;SDS011;68470;50.224;14.348;2023-06-14T04:22:32;11.02;;;6.10;;
79066;SDS011;68470;50.224;14.348;2023-06-14T04:24:58;9.57;;;5.28;;
79066;SDS011;68470;50.224;14.348;2023-06-14T04:27:25;10.57;;;6.35;;
79066;SDS011;68470;50.224;14.348;2023-06-14T04:29:52;8.68;;;5.72;;
79066;SDS011;68470;50.224;14.348;2023-06-14T04:32:25;7.95;;;5.55;;
79066;SDS011;68470;50.224;14.348;2023-06-14T04:34:55;8.50;;;5.75;;
79066;SDS011;68470;50.224;14.348;2023-06-14T04:37:21;8.85;;;5.20;;
79066;SDS011;68470;50.224;14.348;2023-06-14T04:39:48;10.10;;;5.65;;
79066;SDS011;68470;50.224;14.348;2023-06-14T04:42:14;7.35;;;4.93;;
79066;SDS011;68470;50.224;14.348;2023-06-14T04:44:42;7.07;;;5.22;;
79066;SDS011;68470;50.224;14.348;2023-06-14T04:47:11;7.13;;;5.00;;
79066;SDS011;68470;50.224;14.348;2023-06-14T04:49:38;8.50;;;5.75;;
79066;SDS011;68470;50.224;14.348;2023-06-14T04:52:05;8.98;;;4.85;;
79066;SDS011;68470;50.224;14.348;2023-06-14T04:54:32;9.20;;;5.00;;
79066;SDS011;68470;50.224;14.348;2023-06-14T04:56:59;9.27;;;5.18;;
79066;SDS011;68470;50.224;14.348;2023-06-14T04:59:25;6.80;;;4.13;;
79066;SDS011;68470;50.224;14.348;2023-06-14T05:01:51;9.68;;;5.38;;
79066;SDS011;68470;50.224;14.348;2023-06-14T05:04:19;10.57;;;5.07;;
79066;SDS011;68470;50.224;14.348;2023-06-14T05:06:45;7.63;;;5.28;;
79066;SDS011;68470;50.224;14.348;2023-06-14T05:09:13;8.80;;;5.38;;
79066;SDS011;68470;50.224;14.348;2023-06-14T05:11:41;9.15;;;4.88;;
79066;SDS011;68470;50.224;14.348;2023-06-14T05:14:13;7.90;;;4.75;;
79066;SDS011;68470;50.224;14.348;2023-06-14T05:16:39;9.93;;;5.22;;
79066;SDS011;68470;50.224;14.348;2023-06-14T05:19:05;10.85;;;4.68;;
79066;SDS011;68470;50.224;14.348;2023-06-14T05:21:32;9.50;;;4.90;;
79066;SDS011;68470;50.224;14.348;2023-06-14T05:24:01;7.28;;;5.32;;
79066;SDS011;68470;50.224;14.348;2023-06-14T05:26:27;6.63;;;4.70;;
79066;SDS011;68470;50.224;14.348;2023-06-14T05:28:57;8.10;;;4.50;;
79066;SDS011;68470;50.224;14.348;2023-06-14T05:31:26;6.35;;;4.55;;
79066;SDS011;68470;50.224;14.348;2023-06-14T05:33:53;6.68;;;4.63;;
79066;SDS011;68470;50.224;14.348;2023-06-14T05:36:19;6.10;;;4.53;;
79066;SDS011;68470;50.224;14.348;2023-06-14T05:38:46;7.70;;;4.90;;
79066;SDS011;68470;50.224;14.348;2023-06-14T05:41:12;6.13;;;3.58;;
79066;SDS011;68470;50.224;14.348;2023-06-14T05:43:38;8.20;;;4.80;;
79066;SDS011;68470;50.224;14.348;2023-06-14T05:46:04;8.07;;;5.60;;
79066;SDS011;68470;50.224;14.348;2023-06-14T05:48:30;9.38;;;5.18;;
79066;SDS011;68470;50.224;14.348;2023-06-14T05:50:56;10.77;;;5.68;;
79066;SDS011;68470;50.224;14.348;2023-06-14T05:53:22;13.00;;;5.57;;
79066;SDS011;68470;50.224;14.348;2023-06-14T05:55:49;8.27;;;4.90;;
79066;SDS011;68470;50.224;14.348;2023-06-14T05:58:18;10.32;;;4.95;;
79066;SDS011;68470;50.224;14.348;2023-06-14T06:00:44;7.13;;;5.68;;
79066;SDS011;68470;50.224;14.348;2023-06-14T06:03:11;7.30;;;4.63;;
79066;SDS011;68470;50.224;14.348;2023-06-14T06:05:39;7.30;;;4.53;;
79066;SDS011;68470;50.224;14.348;2023-06-14T06:08:05;9.48;;;5.18;;
79066;SDS011;68470;50.224;14.348;2023-06-14T06:10:31;6.88;;;5.13;;
79066;SDS011;68470;50.224;14.348;2023-06-14T06:12:57;5.38;;;3.88;;
79066;SDS011;68470;50.224;14.348;2023-06-14T06:15:23;6.65;;;4.47;;
79066;SDS011;68470;50.224;14.348;2023-06-14T06:17:48;6.65;;;4.05;;
79066;SDS011;68470;50.224;14.348;2023-06-14T06:20:14;7.43;;;4.32;;
79066;SDS011;68470;50.224;14.348;2023-06-14T06:22:40;8.85;;;4.15;;
79066;SDS011;68470;50.224;14.348;2023-06-14T06:25:06;6.65;;;4.45;;
79066;SDS011;68470;50.224;14.348;2023-06-14T06:27:32;8.27;;;4.63;;
79066;SDS011;68470;50.224;14.348;2023-06-14T06:29:58;7.00;;;4.43;;
79066;SDS011;68470;50.224;14.348;2023-06-14T06:32:24;5.72;;;4.10;;
79066;SDS011;68470;50.224;14.348;2023-06-14T06:34:50;8.73;;;4.78;;
79066;SDS011;68470;50.224;14.348;2023-06-14T06:37:17;7.25;;;4.43;;
79066;SDS011;68470;50.224;14.348;2023-06-14T06:39:43;7.53;;;4.78;;
79066;SDS011;68470;50.224;14.348;2023-06-14T06:42:09;6.53;;;4.57;;
79066;SDS011;68470;50.224;14.348;2023-06-14T06:44:36;8.50;;;4.60;;
79066;SDS011;68470;50.224;14.348;2023-06-14T06:47:01;7.45;;;4.32;;
79066;SDS011;68470;50.224;14.348;2023-06-14T06:49:28;6.82;;;4.30;;
79066;SDS011;68470;50.224;14.348;2023-06-14T06:52:03;6.10;;;4.30;;
79066;SDS011;68470;50.224;14.348;2023-06-14T06:54:31;6.57;;;4.60;;
79066;SDS011;68470;50.224;14.348;2023-06-14T06:56:57;8.90;;;4.43;;
79066;SDS011;68470;50.224;14.348;2023-06-14T06:59:24;6.70;;;4.40;;
79066;SDS011;68470;50.224;14.348;2023-06-14T07:01:50;5.65;;;3.97;;
79066;SDS011;68470;50.224;14.348;2023-06-14T07:04:16;8.45;;;4.35;;
79066;SDS011;68470;50.224;14.348;2023-06-14T07:06:42;5.65;;;4.07;;
79066;SDS011;68470;50.224;14.348;2023-06-14T07:09:08;7.93;;;4.28;;
79066;SDS011;68470;50.224;14.348;2023-06-14T07:11:38;5.15;;;3.97;;
79066;SDS011;68470;50.224;14.348;2023-06-14T07:14:05;6.00;;;4.25;;
79066;SDS011;68470;50.224;14.348;2023-06-14T07:16:31;6.75;;;4.28;;
79066;SDS011;68470;50.224;14.348;2023-06-14T07:18:57;7.68;;;4.68;;
79066;SDS011;68470;50.224;14.348;2023-06-14T07:21:23;5.30;;;4.15;;
79066;SDS011;68470;50.224;14.348;2023-06-14T07:23:52;5.55;;;4.22;;
79066;SDS011;68470;50.224;14.348;2023-06-14T07:26:18;7.43;;;4.22;;
79066;SDS011;68470;50.224;14.348;2023-06-14T07:28:44;6.32;;;4.78;;
79066;SDS011;68470;50.224;14.348;2023-06-14T07:31:10;5.03;;;3.88;;
79066;SDS011;68470;50.224;14.348;2023-06-14T07:33:36;6.78;;;4.88;;
79066;SDS011;68470;50.224;14.348;2023-06-14T07:36:02;5.70;;;4.15;;
79066;SDS011;68470;50.224;14.348;2023-06-14T07:38:29;4.97;;;4.00;;
79066;SDS011;68470;50.224;14.348;2023-06-14T07:40:54;6.88;;;4.40;;
79066;SDS011;68470;50.224;14.348;2023-06-14T07:43:20;6.53;;;4.50;;
79066;SDS011;68470;50.224;14.348;2023-06-14T07:45:46;8.45;;;4.63;;
79066;SDS011;68470;50.224;14.348;2023-06-14T07:48:18;6.03;;;3.78;;
79066;SDS011;68470;50.224;14.348;2023-06-14T07:50:44;6.63;;;3.95;;
79066;SDS011;68470;50.224;14.348;2023-06-14T07:53:09;5.80;;;4.10;;
79066;SDS011;68470;50.224;14.348;2023-06-14T07:55:42;6.60;;;4.53;;
79066;SDS011;68470;50.224;14.348;2023-06-14T07:58:08;6.18;;;4.15;;
79066;SDS011;68470;50.224;14.348;2023-06-14T08:00:34;5.13;;;4.15;;
79066;SDS011;68470;50.224;14.348;2023-06-14T08:03:00;5.93;;;4.03;;
79066;SDS011;68470;50.224;14.348;2023-06-14T08:05:27;6.32;;;4.25;;
79066;SDS011;68470;50.224;14.348;2023-06-14T08:07:53;7.97;;;4.75;;
79066;SDS011;68470;50.224;14.348;2023-06-14T08:10:20;6.57;;;4.10;;
79066;SDS011;68470;50.224;14.348;2023-06-14T08:12:46;6.85;;;4.50;;
79066;SDS011;68470;50.224;14.348;2023-06-14T08:15:12;7.07;;;4.65;;
79066;SDS011;68470;50.224;14.348;2023-06-14T08:17:37;8.75;;;4.38;;
79066;SDS011;68470;50.224;14.348;2023-06-14T08:20:03;7.93;;;4.43;;
79066;SDS011;68470;50.224;14.348;2023-06-14T08:22:31;6.80;;;4.85;;
79066;SDS011;68470;50.224;14.348;2023-06-14T08:25:02;8.63;;;4.50;;
79066;SDS011;68470;50.224;14.348;2023-06-14T08:27:29;5.40;;;4.40;;
79066;SDS011;68470;50.224;14.348;2023-06-14T08:29:56;9.52;;;4.95;;
79066;SDS011;68470;50.224;14.348;2023-06-14T08:32:22;7.72;;;4.05;;
79066;SDS011;68470;50.224;14.348;2023-06-14T08:34:48;6.65;;;4.53;;
79066;SDS011;68470;50.224;14.348;2023-06-14T08:37:14;5.93;;;2.95;;
79066;SDS011;68470;50.224;14.348;2023-06-14T08:39:40;5.13;;;3.75;;
79066;SDS011;68470;50.224;14.348;2023-06-14T08:42:07;6.82;;;4.50;;
79066;SDS011;68470;50.224;14.348;2023-06-14T08:44:34;4.68;;;3.35;;
79066;SDS011;68470;50.224;14.348;2023-06-14T08:47:00;5.93;;;4.60;;
79066;SDS011;68470;50.224;14.348;2023-06-14T08:49:26;7.18;;;3.78;;
79066;SDS011;68470;50.224;14.348;2023-06-14T08:51:57;6.93;;;4.20;;
79066;SDS011;68470;50.224;14.348;2023-06-14T08:54:25;5.57;;;4.32;;
79066;SDS011;68470;50.224;14.348;2023-06-14T08:56:53;5.82;;;4.45;;
79066;SDS011;68470;50.224;14.348;2023-06-14T08:59:24;7.10;;;4.65;;
79066;SDS011;68470;50.224;14.348;2023-06-14T09:01:52;7.55;;;4.97;;
79066;SDS011;68470;50.224;14.348;2023-06-14T09:04:25;7.65;;;4.22;;
79066;SDS011;68470;50.224;14.348;2023-06-14T09:06:58;7.00;;;4.18;;
79066;SDS011;68470;50.224;14.348;2023-06-14T09:09:24;6.22;;;4.40;;
79066;SDS011;68470;50.224;14.348;2023-06-14T09:11:51;6.53;;;4.22;;
79066;SDS011;68470;50.224;14.348;2023-06-14T09:14:21;6.95;;;4.13;;
79066;SDS011;68470;50.224;14.348;2023-06-14T09:16:52;6.65;;;3.95;;
79066;SDS011;68470;50.224;14.348;2023-06-14T09:19:21;5.10;;;3.97;;
79066;SDS011;68470;50.224;14.348;2023-06-14T09:21:49;4.88;;;3.58;;
79066;SDS011;68470;50.224;14.348;2023-06-14T09:24:15;5.63;;;3.72;;
79066;SDS011;68470;50.224;14.348;2023-06-14T09:26:41;6.10;;;4.68;;
79066;SDS011;68470;50.224;14.348;2023-06-14T09:29:08;8.35;;;4.70;;
79066;SDS011;68470;50.224;14.348;2023-06-14T09:31:36;7.00;;;4.25;;
79066;SDS011;68470;50.224;14.348;2023-06-14T09:34:02;6.15;;;4.30;;
79066;SDS011;68470;50.224;14.348;2023-06-14T09:36:30;4.75;;;3.20;;
79066;SDS011;68470;50.224;14.348;2023-06-14T09:41:39;6.10;;;4.15;;
79066;SDS011;68470;50.224;14.348;2023-06-14T09:44:07;6.20;;;4.65;;
79066;SDS011;68470;50.224;14.348;2023-06-14T09:46:35;8.15;;;4.15;;
79066;SDS011;68470;50.224;14.348;2023-06-14T09:49:02;6.18;;;4.22;;
79066;SDS011;68470;50.224;14.348;2023-06-14T09:51:30;4.28;;;3.60;;
79066;SDS011;68470;50.224;14.348;2023-06-14T09:54:00;5.28;;;3.90;;
79066;SDS011;68470;50.224;14.348;2023-06-14T09:56:31;6.05;;;3.90;;
79066;SDS011;68470;50.224;14.348;2023-06-14T09:59:00;5.60;;;3.97;;
79066;SDS011;68470;50.224;14.348;2023-06-14T10:01:35;6.22;;;4.22;;
79066;SDS011;68470;50.224;14.348;2023-06-14T10:04:06;4.70;;;3.65;;
79066;SDS011;68470;50.224;14.348;2023-06-14T10:06:35;5.80;;;4.00;;
79066;SDS011;68470;50.224;14.348;2023-06-14T10:09:03;5.45;;;4.43;;
79066;SDS011;68470;50.224;14.348;2023-06-14T10:11:33;4.13;;;3.25;;
79066;SDS011;68470;50.224;14.348;2023-06-14T10:14:00;5.75;;;3.38;;
79066;SDS011;68470;50.224;14.348;2023-06-14T10:19:37;5.13;;;3.42;;
79066;SDS011;68470;50.224;14.348;2023-06-14T10:22:21;3.95;;;3.55;;
79066;SDS011;68470;50.224;14.348;2023-06-14T10:24:55;6.20;;;3.97;;
79066;SDS011;68470;50.224;14.348;2023-06-14T10:27:21;4.63;;;3.40;;
79066;SDS011;68470;50.224;14.348;2023-06-14T10:32:24;6.85;;;3.63;;
79066;SDS011;68470;50.224;14.348;2023-06-14T10:34:57;6.03;;;3.33;;
79066;SDS011;68470;50.224;14.348;2023-06-14T10:37:24;5.80;;;3.10;;
79066;SDS011;68470;50.224;14.348;2023-06-14T10:39:50;5.95;;;3.47;;
79066;SDS011;68470;50.224;14.348;2023-06-14T10:42:16;6.10;;;4.07;;
79066;SDS011;68470;50.224;14.348;2023-06-14T10:44:43;7.78;;;5.20;;
79066;SDS011;68470;50.224;14.348;2023-06-14T10:47:19;5.30;;;4.10;;
79066;SDS011;68470;50.224;14.348;2023-06-14T10:49:51;8.40;;;3.85;;
79066;SDS011;68470;50.224;14.348;2023-06-14T10:52:20;7.85;;;4.03;;
79066;SDS011;68470;50.224;14.348;2023-06-14T10:57:37;5.43;;;3.25;;
79066;SDS011;68470;50.224;14.348;2023-06-14T11:00:11;5.35;;;3.38;;
79066;SDS011;68470;50.224;14.348;2023-06-14T11:02:46;6.25;;;3.65;;
79066;SDS011;68470;50.224;14.348;2023-06-14T11:05:23;4.10;;;3.25;;
79066;SDS011;68470;50.224;14.348;2023-06-14T11:11:07;6.45;;;3.83;;
79066;SDS011;68470;50.224;14.348;2023-06-14T11:13:36;4.80;;;3.72;;
79066;SDS011;68470;50.224;14.348;2023-06-14T11:16:03;5.00;;;3.70;;
79066;SDS011;68470;50.224;14.348;2023-06-14T11:18:39;5.32;;;3.50;;
79066;SDS011;68470;50.224;14.348;2023-06-14T11:21:05;4.97;;;3.75;;
79066;SDS011;68470;50.224;14.348;2023-06-14T11:23:32;4.97;;;4.03;;
79066;SDS011;68470;50.224;14.348;2023-06-14T11:25:57;7.38;;;4.68;;
79066;SDS011;68470;50.224;14.348;2023-06-14T11:28:23;4.28;;;3.33;;
79066;SDS011;68470;50.224;14.348;2023-06-14T11:30:59;6.85;;;3.88;;
79066;SDS011;68470;50.224;14.348;2023-06-14T11:33:26;5.57;;;4.00;;
79066;SDS011;68470;50.224;14.348;2023-06-14T11:35:52;4.80;;;3.70;;
79066;SDS011;68470;50.224;14.348;2023-06-14T11:38:18;5.05;;;3.92;;
79066;SDS011;68470;50.224;14.348;2023-06-14T11:40:44;4.97;;;3.45;;
79066;SDS011;68470;50.224;14.348;2023-06-14T11:43:09;4.53;;;3.63;;
79066;SDS011;68470;50.224;14.348;2023-06-14T11:45:35;6.65;;;4.13;;
79066;SDS011;68470;50.224;14.348;2023-06-14T11:48:02;4.03;;;3.40;;
79066;SDS011;68470;50.224;14.348;2023-06-14T11:50:28;6.70;;;3.85;;
79066;SDS011;68470;50.224;14.348;2023-06-14T11:52:54;4.45;;;3.38;;
79066;SDS011;68470;50.224;14.348;2023-06-14T11:55:21;4.40;;;3.45;;
79066;SDS011;68470;50.224;14.348;2023-06-14T11:57:48;6.40;;;3.40;;
79066;SDS011;68470;50.224;14.348;2023-06-14T12:00:14;5.25;;;3.45;;
79066;SDS011;68470;50.224;14.348;2023-06-14T12:02:41;4.40;;;3.38;;
79066;SDS011;68470;50.224;14.348;2023-06-14T12:05:07;4.82;;;3.60;;
79066;SDS011;68470;50.224;14.348;2023-06-14T12:07:38;3.92;;;3.30;;
79066;SDS011;68470;50.224;14.348;2023-06-14T12:10:05;4.68;;;3.72;;
79066;SDS011;68470;50.224;14.348;2023-06-14T12:12:36;4.88;;;3.40;;
79066;SDS011;68470;50.224;14.348;2023-06-14T12:15:04;4.45;;;3.60;;
79066;SDS011;68470;50.224;14.348;2023-06-14T12:17:32;5.15;;;3.20;;
79066;SDS011;68470;50.224;14.348;2023-06-14T12:19:58;4.40;;;3.90;;
79066;SDS011;68470;50.224;14.348;2023-06-14T12:22:32;5.72;;;3.50;;
79066;SDS011;68470;50.224;14.348;2023-06-14T12:24:58;3.95;;;3.30;;
79066;SDS011;68470;50.224;14.348;2023-06-14T12:27:23;3.85;;;3.13;;
79066;SDS011;68470;50.224;14.348;2023-06-14T12:30:03;7.20;;;3.22;;
79066;SDS011;68470;50.224;14.348;2023-06-14T12:32:32;7.03;;;3.08;;
79066;SDS011;68470;50.224;14.348;2023-06-14T12:34:58;3.88;;;3.10;;
79066;SDS011;68470;50.224;14.348;2023-06-14T12:37:24;4.82;;;3.50;;
79066;SDS011;68470;50.224;14.348;2023-06-14T12:39:50;4.78;;;2.97;;
79066;SDS011;68470;50.224;14.348;2023-06-14T12:42:16;4.22;;;2.78;;
79066;SDS011;68470;50.224;14.348;2023-06-14T12:44:42;5.32;;;3.10;;
79066;SDS011;68470;50.224;14.348;2023-06-14T12:47:08;4.20;;;3.38;;
79066;SDS011;68470;50.224;14.348;2023-06-14T12:49:33;3.60;;;3.00;;
79066;SDS011;68470;50.224;14.348;2023-06-14T12:51:59;5.10;;;3.50;;
79066;SDS011;68470;50.224;14.348;2023-06-14T12:54:25;4.93;;;4.22;;
79066;SDS011;68470;50.224;14.348;2023-06-14T12:56:51;4.80;;;3.58;;
79066;SDS011;68470;50.224;14.348;2023-06-14T12:59:18;4.20;;;3.42;;
79066;SDS011;68470;50.224;14.348;2023-06-14T13:01:44;3.40;;;3.00;;
79066;SDS011;68470;50.224;14.348;2023-06-14T13:04:15;4.15;;;3.67;;
79066;SDS011;68470;50.224;14.348;2023-06-14T13:06:41;5.28;;;3.38;;
79066;SDS011;68470;50.224;14.348;2023-06-14T13:09:07;3.58;;;2.97;;
79066;SDS011;68470;50.224;14.348;2023-06-14T13:11:33;5.20;;;3.63;;
79066;SDS011;68470;50.224;14.348;2023-06-14T13:13:59;4.80;;;3.30;;
79066;SDS011;68470;50.224;14.348;2023-06-14T13:16:25;4.22;;;3.75;;
79066;SDS011;68470;50.224;14.348;2023-06-14T13:18:50;6.68;;;3.75;;
79066;SDS011;68470;50.224;14.348;2023-06-14T13:21:16;5.13;;;3.53;;
79066;SDS011;68470;50.224;14.348;2023-06-14T13:23:42;4.93;;;3.67;;
79066;SDS011;68470;50.224;14.348;2023-06-14T13:26:08;6.25;;;3.65;;
79066;SDS011;68470;50.224;14.348;2023-06-14T13:28:33;5.75;;;3.10;;
79066;SDS011;68470;50.224;14.348;2023-06-14T13:31:00;4.05;;;3.28;;
79066;SDS011;68470;50.224;14.348;2023-06-14T13:33:27;5.00;;;3.80;;
79066;SDS011;68470;50.224;14.348;2023-06-14T13:35:53;5.10;;;3.38;;
79066;SDS011;68470;50.224;14.348;2023-06-14T13:38:19;5.93;;;3.22;;
79066;SDS011;68470;50.224;14.348;2023-06-14T13:40:45;11.90;;;3.45;;
79066;SDS011;68470;50.224;14.348;2023-06-14T13:43:11;6.20;;;3.90;;
79066;SDS011;68470;50.224;14.348;2023-06-14T13:45:36;5.55;;;3.65;;
79066;SDS011;68470;50.224;14.348;2023-06-14T13:48:02;4.10;;;3.20;;
79066;SDS011;68470;50.224;14.348;2023-06-14T13:50:28;4.57;;;3.47;;
79066;SDS011;68470;50.224;14.348;2023-06-14T13:52:54;5.85;;;3.20;;
79066;SDS011;68470;50.224;14.348;2023-06-14T13:55:20;4.55;;;3.22;;
79066;SDS011;68470;50.224;14.348;2023-06-14T13:57:46;4.95;;;3.28;;
79066;SDS011;68470;50.224;14.348;2023-06-14T14:00:12;4.43;;;3.15;;
79066;SDS011;68470;50.224;14.348;2023-06-14T14:02:41;5.30;;;3.20;;
79066;SDS011;68470;50.224;14.348;2023-06-14T14:05:08;4.78;;;3.25;;
79066;SDS011;68470;50.224;14.348;2023-06-14T14:07:34;4.47;;;3.33;;
79066;SDS011;68470;50.224;14.348;2023-06-14T14:10:02;4.78;;;3.33;;
79066;SDS011;68470;50.224;14.348;2023-06-14T14:12:27;6.85;;;3.83;;
79066;SDS011;68470;50.224;14.348;2023-06-14T14:14:54;3.85;;;2.60;;
79066;SDS011;68470;50.224;14.348;2023-06-14T14:17:20;4.18;;;3.15;;
79066;SDS011;68470;50.224;14.348;2023-06-14T14:19:46;3.92;;;3.03;;
79066;SDS011;68470;50.224;14.348;2023-06-14T14:22:11;4.65;;;3.40;;
79066;SDS011;68470;50.224;14.348;2023-06-14T14:24:41;4.32;;;3.38;;
79066;SDS011;68470;50.224;14.348;2023-06-14T14:27:07;4.00;;;3.22;;
79066;SDS011;68470;50.224;14.348;2023-06-14T14:29:33;4.28;;;3.15;;
79066;SDS011;68470;50.224;14.348;2023-06-14T14:31:59;3.97;;;3.13;;
79066;SDS011;68470;50.224;14.348;2023-06-14T14:34:25;4.72;;;3.30;;
79066;SDS011;68470;50.224;14.348;2023-06-14T14:36:51;5.82;;;3.42;;
79066;SDS011;68470;50.224;14.348;2023-06-14T14:39:17;4.75;;;3.55;;
79066;SDS011;68470;50.224;14.348;2023-06-14T14:41:43;4.68;;;3.30;;
79066;SDS011;68470;50.224;14.348;2023-06-14T14:44:08;4.13;;;3.20;;
79066;SDS011;68470;50.224;14.348;2023-06-14T14:46:34;4.20;;;2.72;;
79066;SDS011;68470;50.224;14.348;2023-06-14T14:49:00;7.75;;;3.55;;
79066;SDS011;68470;50.224;14.348;2023-06-14T14:51:26;4.85;;;3.30;;
79066;SDS011;68470;50.224;14.348;2023-06-14T14:53:52;4.05;;;3.15;;